createdAt,value
2023-03-10T03:55:08.124Z,83
2023-03-10T03:56:08.864Z,83
2023-03-10T03:58:07.913Z,83
2023-03-10T03:59:08.592Z,83
2023-03-10T04:00:08.414Z,84
2023-03-10T04:01:08.769Z,84
2023-03-10T04:02:08.391Z,84
2023-03-10T04:03:09.136Z,84
2023-03-10T04:04:08.345Z,84
2023-03-10T04:05:08.063Z,84
2023-03-10T04:07:08.830Z,84
2023-03-10T04:08:08.400Z,84
2023-03-10T04:09:08.794Z,84
2023-03-10T04:11:08.248Z,84
2023-03-10T04:12:08.520Z,84
2023-03-10T04:14:08.913Z,84
2023-03-10T04:15:08.566Z,84
2023-03-10T04:16:09.154Z,84
2023-03-10T04:17:10.168Z,84
2023-03-10T04:18:08.218Z,84
2023-03-10T04:19:08.917Z,84
2023-03-10T04:20:14.144Z,84
2023-03-10T04:21:08.851Z,84
2023-03-10T04:22:08.327Z,84
2023-03-10T04:23:08.145Z,84
2023-03-10T04:24:08.912Z,84
2023-03-10T04:26:08.520Z,84
2023-03-10T04:27:08.153Z,84
2023-03-10T04:28:08.758Z,84
2023-03-10T04:29:08.495Z,84
2023-03-10T04:30:08.058Z,84
2023-03-10T04:31:08.646Z,84
2023-03-10T04:32:12.190Z,84
2023-03-10T04:33:08.229Z,84
2023-03-10T04:34:08.270Z,84
2023-03-10T04:35:08.720Z,84
2023-03-10T04:36:08.254Z,84
2023-03-10T04:37:08.647Z,84
2023-03-10T04:38:08.192Z,84
2023-03-10T04:39:07.971Z,84
2023-03-10T04:40:08.757Z,84
2023-03-10T04:42:08.578Z,84
2023-03-10T04:43:08.194Z,84
2023-03-10T04:44:15.004Z,84
2023-03-10T04:45:08.312Z,84
2023-03-10T04:46:08.854Z,84
2023-03-10T04:47:08.195Z,84
2023-03-10T04:49:08.173Z,84
2023-03-10T04:50:08.780Z,84
2023-03-10T04:51:08.163Z,84
2023-03-10T04:53:08.313Z,84
2023-03-10T04:54:08.957Z,84
2023-03-10T04:55:08.606Z,84
2023-03-10T04:56:08.317Z,84
2023-03-10T04:57:07.777Z,83
2023-03-10T04:58:08.614Z,83
2023-03-10T04:59:08.345Z,83
2023-03-10T05:00:10.298Z,83
2023-03-10T05:01:10.339Z,83
2023-03-10T05:02:09.210Z,83
2023-03-10T05:03:08.184Z,83
2023-03-10T05:04:09.109Z,83
2023-03-10T05:06:08.906Z,83
2023-03-10T05:07:08.392Z,83
2023-03-10T05:09:08.689Z,83
2023-03-10T05:10:08.336Z,83
2023-03-10T05:11:08.029Z,83
2023-03-10T05:12:08.657Z,83
2023-03-10T05:13:08.829Z,82
2023-03-10T05:14:08.474Z,82
2023-03-10T05:15:08.244Z,82
2023-03-10T05:17:08.158Z,82
2023-03-10T05:18:08.700Z,82
2023-03-10T05:20:08.620Z,82
2023-03-10T05:22:08.164Z,82
2023-03-10T05:23:08.879Z,82
2023-03-10T05:24:08.493Z,82
2023-03-10T05:25:08.054Z,82
2023-03-10T05:26:08.648Z,81
2023-03-10T05:27:08.215Z,81
2023-03-10T05:29:08.280Z,81
2023-03-10T05:30:07.966Z,81
2023-03-10T05:32:08.944Z,81
2023-03-10T05:33:08.412Z,81
2023-03-10T05:34:08.037Z,81
2023-03-10T05:35:08.866Z,80
2023-03-10T05:36:08.868Z,80
2023-03-10T05:38:08.669Z,80
2023-03-10T05:40:08.244Z,80
2023-03-10T05:41:08.209Z,80
2023-03-10T05:42:07.975Z,80
2023-03-10T05:43:08.910Z,80
2023-03-10T05:44:08.325Z,80
2023-03-10T05:45:08.008Z,80
2023-03-10T05:46:08.142Z,80
2023-03-10T05:49:08.588Z,80
2023-03-10T05:50:08.095Z,80
2023-03-10T05:51:08.228Z,80
2023-03-10T05:52:08.038Z,80
2023-03-10T05:53:08.458Z,80
2023-03-10T05:54:08.128Z,80
2023-03-10T05:55:08.764Z,80
2023-03-10T05:56:07.999Z,80
2023-03-10T05:57:08.509Z,80
2023-03-10T05:58:08.143Z,80
2023-03-10T06:00:08.180Z,80
2023-03-10T06:01:08.394Z,80
2023-03-10T06:02:08.054Z,79
2023-03-10T06:04:08.595Z,79
2023-03-10T06:05:10.234Z,79
2023-03-10T06:06:08.272Z,79
2023-03-10T06:07:08.013Z,79
2023-03-10T06:08:08.629Z,79
2023-03-10T06:09:08.114Z,79
2023-03-10T06:10:08.801Z,79
2023-03-10T06:11:08.459Z,79
2023-03-10T06:12:08.192Z,79
2023-03-10T06:13:08.783Z,79
2023-03-10T06:14:08.237Z,79
2023-03-10T06:16:08.722Z,79
2023-03-10T06:17:08.223Z,79
2023-03-10T06:19:08.411Z,79
2023-03-10T06:20:09.148Z,79
2023-03-10T06:21:08.724Z,79
2023-03-10T06:22:08.218Z,79
2023-03-10T06:23:08.758Z,79
2023-03-10T06:24:08.562Z,79
2023-03-10T06:25:08.081Z,79
2023-03-10T06:26:08.278Z,79
2023-03-10T06:27:08.856Z,79
2023-03-10T06:28:10.602Z,79
2023-03-10T06:29:08.101Z,79
2023-03-10T06:30:08.693Z,79
2023-03-10T06:31:08.313Z,79
2023-03-10T06:32:08.224Z,79
2023-03-10T06:33:08.632Z,79
2023-03-10T06:35:08.644Z,79
2023-03-10T06:36:08.292Z,79
2023-03-10T06:37:08.668Z,79
2023-03-10T06:39:08.803Z,79
2023-03-10T06:40:08.437Z,79
2023-03-10T06:41:08.736Z,79
2023-03-10T06:43:08.087Z,79
2023-03-10T06:44:08.760Z,79
2023-03-10T06:45:08.051Z,79
2023-03-10T06:46:09.015Z,79
2023-03-10T06:47:08.233Z,79
2023-03-10T06:48:09.009Z,79
2023-03-10T06:49:08.290Z,79
2023-03-10T06:51:08.153Z,79
2023-03-10T06:52:08.497Z,79
2023-03-10T06:53:08.262Z,79
2023-03-10T06:54:08.994Z,79
2023-03-10T06:55:08.585Z,79
2023-03-10T06:56:07.885Z,79
2023-03-10T06:57:08.585Z,79
2023-03-10T06:58:08.178Z,79
2023-03-10T06:59:08.642Z,79
2023-03-10T07:00:08.515Z,79
2023-03-10T07:01:09.044Z,79
2023-03-10T07:03:07.999Z,79
2023-03-10T07:04:08.261Z,79
2023-03-10T07:05:08.552Z,79
2023-03-10T07:06:08.476Z,79
2023-03-10T07:07:07.859Z,79
2023-03-10T07:08:08.492Z,79
2023-03-10T07:09:08.208Z,79
2023-03-10T07:10:11.166Z,79
2023-03-10T07:11:08.194Z,79
2023-03-10T07:12:09.030Z,79
2023-03-10T07:13:08.251Z,79
2023-03-10T07:16:08.652Z,79
2023-03-10T07:18:08.016Z,80
2023-03-10T07:19:08.732Z,80
2023-03-10T07:20:08.620Z,80
2023-03-10T07:21:08.648Z,80
2023-03-10T07:22:11.016Z,80
2023-03-10T07:23:08.760Z,80
2023-03-10T07:24:08.894Z,80
2023-03-10T07:25:08.039Z,80
2023-03-10T07:26:08.136Z,80
2023-03-10T07:27:08.533Z,80
2023-03-10T07:28:08.409Z,80
2023-03-10T07:29:07.617Z,80
2023-03-10T07:30:08.577Z,80
2023-03-10T07:31:09.161Z,79
2023-03-10T07:32:08.349Z,79
2023-03-10T07:33:07.862Z,79
2023-03-10T07:34:08.463Z,79
2023-03-10T07:35:08.258Z,79
2023-03-10T07:38:08.330Z,79
2023-03-10T07:39:08.077Z,79
2023-03-10T07:40:08.691Z,79
2023-03-10T07:41:08.679Z,79
2023-03-10T07:42:08.200Z,79
2023-03-10T07:43:08.907Z,79
2023-03-10T07:44:08.241Z,79
2023-03-10T07:45:07.884Z,79
2023-03-10T07:46:08.359Z,79
2023-03-10T07:48:08.301Z,78
2023-03-10T07:49:09.006Z,78
2023-03-10T07:51:08.602Z,79
2023-03-10T07:52:08.251Z,78
2023-03-10T07:53:08.822Z,78
2023-03-10T07:54:08.468Z,78
2023-03-10T07:55:07.978Z,78
2023-03-10T07:56:08.298Z,78
2023-03-10T07:57:07.852Z,78
2023-03-10T07:58:08.322Z,77
2023-03-10T07:59:08.069Z,77
2023-03-10T08:00:08.372Z,77
2023-03-10T08:01:08.749Z,77
2023-03-10T08:02:08.392Z,76
2023-03-10T08:03:08.088Z,76
2023-03-10T08:04:09.192Z,76
2023-03-10T08:05:08.891Z,76
2023-03-10T08:06:08.302Z,76
2023-03-10T08:07:08.088Z,75
2023-03-10T08:08:08.998Z,75
2023-03-10T08:09:08.311Z,75
2023-03-10T08:10:08.280Z,75
2023-03-10T08:11:08.484Z,75
2023-03-10T08:12:08.838Z,75
2023-03-10T08:14:08.415Z,75
2023-03-10T08:15:08.737Z,75
2023-03-10T08:16:08.483Z,75
2023-03-10T08:17:08.459Z,74
2023-03-10T08:18:08.134Z,74
2023-03-10T08:19:08.647Z,74
2023-03-10T08:20:08.477Z,74
2023-03-10T08:21:08.685Z,73
2023-03-10T08:23:07.995Z,72
2023-03-10T08:25:08.057Z,72
2023-03-10T08:26:08.435Z,72
2023-03-10T08:27:07.976Z,72
2023-03-10T08:28:08.564Z,72
2023-03-10T08:29:08.262Z,72
2023-03-10T08:30:08.939Z,72
2023-03-10T08:31:11.842Z,71
2023-03-10T08:32:08.905Z,71
2023-03-10T08:33:08.647Z,72
2023-03-10T08:34:08.005Z,71
2023-03-10T08:35:08.503Z,71
2023-03-10T08:36:08.980Z,71
2023-03-10T08:37:08.505Z,71
2023-03-10T08:38:07.789Z,71
2023-03-10T08:39:08.694Z,70
2023-03-10T08:40:08.277Z,70
2023-03-10T08:41:08.167Z,70
2023-03-10T08:42:08.897Z,70
2023-03-10T08:43:08.154Z,70
2023-03-10T08:44:09.214Z,70
2023-03-10T08:45:11.044Z,69
2023-03-10T08:46:11.141Z,69
2023-03-10T08:47:08.884Z,69
2023-03-10T08:49:08.588Z,69
2023-03-10T08:50:08.325Z,69
2023-03-10T08:51:08.340Z,69
2023-03-10T08:52:07.921Z,69
2023-03-10T08:53:08.679Z,69
2023-03-10T08:54:08.068Z,69
2023-03-10T08:55:08.018Z,69
2023-03-10T08:56:08.321Z,69
2023-03-10T08:57:08.023Z,68
2023-03-10T08:58:08.401Z,68
2023-03-10T08:59:07.896Z,68
2023-03-10T09:00:08.861Z,68
2023-03-10T09:01:08.842Z,68
2023-03-10T09:02:09.027Z,68
2023-03-10T09:03:09.008Z,68
2023-03-10T09:04:08.381Z,68
2023-03-10T09:05:08.070Z,68
2023-03-10T09:06:08.179Z,67
2023-03-10T09:07:08.860Z,67
2023-03-10T09:08:08.363Z,67
2023-03-10T09:09:07.884Z,67
2023-03-10T09:10:08.459Z,67
2023-03-10T09:12:08.520Z,66
2023-03-10T09:13:19.595Z,66
2023-03-10T09:14:09.028Z,66
2023-03-10T09:15:08.353Z,66
2023-03-10T09:16:11.064Z,66
2023-03-10T09:17:10.755Z,66
2023-03-10T09:18:08.615Z,66
2023-03-10T09:19:08.429Z,66
2023-03-10T09:20:08.124Z,66
2023-03-10T09:21:07.993Z,66
2023-03-10T09:22:08.646Z,66
2023-03-10T09:23:08.163Z,65
2023-03-10T09:24:08.715Z,65
2023-03-10T09:25:08.400Z,65
2023-03-10T09:26:08.430Z,65
2023-03-10T09:27:08.479Z,65
2023-03-10T09:28:07.972Z,64
2023-03-10T09:29:08.483Z,64
2023-03-10T09:30:08.230Z,64
2023-03-10T09:31:08.283Z,64
2023-03-10T09:32:11.691Z,64
2023-03-10T09:33:08.898Z,64
2023-03-10T09:34:07.986Z,64
2023-03-10T09:35:08.384Z,64
2023-03-10T09:36:13.605Z,64
2023-03-10T09:37:10.567Z,64
2023-03-10T09:38:08.051Z,64
2023-03-10T09:39:08.730Z,64
2023-03-10T09:40:10.562Z,64
2023-03-10T09:41:10.805Z,64
2023-03-10T09:42:08.333Z,64
2023-03-10T09:43:08.637Z,64
2023-03-10T09:44:08.720Z,64
2023-03-10T09:45:08.129Z,64
2023-03-10T09:46:08.716Z,64
2023-03-10T09:49:08.020Z,64
2023-03-10T09:50:08.756Z,64
2023-03-10T09:51:08.610Z,64
2023-03-10T09:52:08.266Z,64
2023-03-10T09:53:08.739Z,63
2023-03-10T09:54:08.228Z,63
2023-03-10T09:55:08.814Z,63
2023-03-10T09:56:08.488Z,63
2023-03-10T09:57:07.788Z,63
2023-03-10T09:58:10.305Z,62
2023-03-10T10:00:08.826Z,62
2023-03-10T10:01:09.054Z,62
2023-03-10T10:02:08.380Z,61
2023-03-10T10:03:11.078Z,61
2023-03-10T10:04:09.248Z,61
2023-03-10T10:05:10.583Z,60
2023-03-10T10:06:08.043Z,60
2023-03-10T10:07:08.544Z,60
2023-03-10T10:08:08.454Z,60
2023-03-10T10:09:11.576Z,60
2023-03-10T10:10:08.645Z,59
2023-03-10T10:11:07.948Z,59
2023-03-10T10:12:08.304Z,59
2023-03-10T10:13:08.215Z,58
2023-03-10T10:14:13.087Z,58
2023-03-10T10:15:07.982Z,58
2023-03-10T10:16:37.203Z,59
2023-03-10T10:17:08.957Z,59
2023-03-10T10:18:28.054Z,58
2023-03-10T10:19:08.743Z,58
2023-03-10T10:20:07.836Z,57
2023-03-10T10:21:10.143Z,57
2023-03-10T10:22:07.791Z,57
2023-03-10T10:23:08.759Z,57
2023-03-10T10:24:08.671Z,57
2023-03-10T10:25:12.262Z,57
2023-03-10T10:26:09.104Z,57
2023-03-10T10:27:08.003Z,57
2023-03-10T10:28:08.734Z,57
2023-03-10T10:29:08.381Z,56
2023-03-10T10:30:08.263Z,56
2023-03-10T10:31:09.019Z,56
2023-03-10T10:32:08.533Z,56
2023-03-10T10:33:07.786Z,55
2023-03-10T10:34:08.570Z,55
2023-03-10T10:35:08.189Z,55
2023-03-10T10:38:08.690Z,57
2023-03-10T10:39:08.397Z,58
2023-03-10T10:40:09.469Z,58
2023-03-10T10:41:11.867Z,59
2023-03-10T10:42:07.750Z,60
2023-03-10T10:43:08.381Z,60
2023-03-10T10:44:08.111Z,60
2023-03-10T10:45:08.690Z,60
2023-03-10T10:48:08.174Z,61
2023-03-10T10:49:07.588Z,62
2023-03-10T10:50:08.571Z,62
2023-03-10T10:51:08.152Z,62
2023-03-10T10:52:08.123Z,63
2023-03-10T10:53:08.409Z,63
2023-03-10T10:54:08.282Z,63
2023-03-10T10:55:08.973Z,64
2023-03-10T10:56:08.299Z,64
2023-03-10T10:57:07.938Z,64
2023-03-10T10:58:08.656Z,64
2023-03-10T10:59:08.106Z,64
2023-03-10T11:00:08.863Z,64
2023-03-10T11:01:08.504Z,64
2023-03-10T11:02:09.109Z,65
2023-03-10T11:03:08.267Z,64
2023-03-10T11:04:08.171Z,65
2023-03-10T11:05:08.480Z,65
2023-03-10T11:06:08.467Z,65
2023-03-10T11:07:08.237Z,65
2023-03-10T11:08:07.970Z,65
2023-03-10T11:09:12.322Z,65
2023-03-10T11:10:07.764Z,65
2023-03-10T11:11:08.454Z,65
2023-03-10T11:12:08.253Z,65
2023-03-10T11:14:08.143Z,65
2023-03-10T11:15:08.677Z,65
2023-03-10T11:16:08.450Z,65
2023-03-10T11:17:08.441Z,65
2023-03-10T11:18:07.996Z,64
2023-03-10T11:19:08.782Z,64
2023-03-10T11:20:08.276Z,65
2023-03-10T11:21:08.639Z,64
2023-03-10T11:22:08.000Z,64
2023-03-10T11:23:08.358Z,64
2023-03-10T11:25:08.855Z,65
2023-03-10T11:26:08.917Z,64
2023-03-10T11:28:08.020Z,64
2023-03-10T11:29:08.771Z,64
2023-03-10T11:30:08.078Z,64
2023-03-10T11:32:08.314Z,64
2023-03-10T11:33:08.062Z,63
2023-03-10T11:34:08.580Z,63
2023-03-10T11:35:07.972Z,64
2023-03-10T11:36:08.829Z,64
2023-03-10T11:37:08.021Z,64
2023-03-10T11:38:08.644Z,63
2023-03-10T11:39:08.284Z,63
2023-03-10T11:40:07.836Z,63
2023-03-10T11:41:08.016Z,63
2023-03-10T11:42:09.518Z,63
2023-03-10T11:44:08.097Z,64
2023-03-10T11:46:09.007Z,64
2023-03-10T11:47:08.141Z,64
2023-03-10T11:48:07.995Z,64
2023-03-10T11:49:08.431Z,64
2023-03-10T11:50:08.183Z,64
2023-03-10T11:51:07.870Z,64
2023-03-10T11:52:07.890Z,64
2023-03-10T11:53:08.640Z,64
2023-03-10T11:54:07.951Z,63
2023-03-10T11:55:08.015Z,64
2023-03-10T11:56:08.010Z,64
2023-03-10T11:57:08.642Z,64
2023-03-10T11:58:08.105Z,64
2023-03-10T11:59:08.652Z,63
2023-03-10T12:00:08.080Z,63
2023-03-10T12:01:08.392Z,63
2023-03-10T12:02:08.046Z,63
2023-03-10T12:03:08.634Z,64
2023-03-10T12:04:07.999Z,64
2023-03-10T12:05:08.900Z,63
2023-03-10T12:06:08.656Z,63
2023-03-10T12:07:07.909Z,63
2023-03-10T12:08:08.709Z,63
2023-03-10T12:10:08.633Z,63
2023-03-10T12:11:07.930Z,63
2023-03-10T12:12:08.779Z,62
2023-03-10T12:13:08.244Z,62
2023-03-10T12:14:07.901Z,62
2023-03-10T12:15:08.740Z,62
2023-03-10T12:16:09.199Z,62
2023-03-10T12:17:08.461Z,62
2023-03-10T12:18:08.538Z,62
2023-03-10T12:19:08.167Z,62
2023-03-10T12:21:08.260Z,61
2023-03-10T12:23:08.264Z,61
2023-03-10T12:24:08.646Z,61
2023-03-10T12:25:08.442Z,61
2023-03-10T12:26:08.733Z,61
2023-03-10T12:27:08.272Z,61
2023-03-10T12:28:08.025Z,61
2023-03-10T12:29:08.758Z,61
2023-03-10T12:30:08.312Z,61
2023-03-10T12:31:08.987Z,60
2023-03-10T12:33:08.717Z,61
2023-03-10T12:34:08.368Z,60
2023-03-10T12:35:08.145Z,60
2023-03-10T12:37:08.154Z,60
2023-03-10T12:38:07.689Z,60
2023-03-10T12:39:08.326Z,60
2023-03-10T12:40:08.229Z,59
2023-03-10T12:41:07.981Z,58
2023-03-10T12:42:08.178Z,59
2023-03-10T12:43:07.972Z,59
2023-03-10T12:44:08.542Z,59
2023-03-10T12:45:07.841Z,59
2023-03-10T12:46:08.318Z,59
2023-03-10T12:47:08.591Z,59
2023-03-10T12:48:07.882Z,58
2023-03-10T12:49:08.413Z,58
2023-03-10T12:50:07.870Z,59
2023-03-10T12:51:08.210Z,59
2023-03-10T12:52:08.794Z,59
2023-03-10T12:53:08.415Z,59
2023-03-10T12:54:07.977Z,58
2023-03-10T12:55:08.582Z,58
2023-03-10T12:56:08.918Z,57
2023-03-10T12:57:08.372Z,56
2023-03-10T12:58:08.041Z,56
2023-03-10T13:00:08.128Z,57
2023-03-10T13:01:08.719Z,57
2023-03-10T13:02:08.203Z,57
2023-03-10T13:03:08.609Z,55
2023-03-10T13:04:09.208Z,55
2023-03-10T13:05:08.222Z,56
2023-03-10T13:06:08.082Z,56
2023-03-10T13:08:08.682Z,56
2023-03-10T13:09:10.120Z,56
2023-03-10T13:10:08.149Z,57
2023-03-10T13:11:08.663Z,56
2023-03-10T13:12:08.786Z,55
2023-03-10T13:13:08.192Z,55
2023-03-10T13:14:08.400Z,55
2023-03-10T13:15:08.657Z,54
2023-03-10T13:16:08.347Z,55
2023-03-10T13:17:08.266Z,56
2023-03-10T13:18:08.560Z,56
2023-03-10T13:19:08.763Z,57
2023-03-10T13:20:07.982Z,57
2023-03-10T13:21:08.304Z,57
2023-03-10T13:22:08.374Z,57
2023-03-10T13:23:08.065Z,57
2023-03-10T13:24:08.195Z,57
2023-03-10T13:26:08.112Z,58
2023-03-10T13:27:08.676Z,57
2023-03-10T13:28:07.946Z,57
2023-03-10T13:29:08.016Z,58
2023-03-10T13:30:08.500Z,58
2023-03-10T13:31:08.923Z,58
2023-03-10T13:32:08.616Z,58
2023-03-10T13:33:08.906Z,58
2023-03-10T13:34:08.529Z,57
2023-03-10T13:35:08.185Z,57
2023-03-10T13:37:08.144Z,57
2023-03-10T13:38:08.563Z,58
2023-03-10T13:39:08.553Z,58
2023-03-10T13:40:08.825Z,58
2023-03-10T13:41:08.292Z,57
2023-03-10T13:42:08.346Z,57
2023-03-10T13:44:07.940Z,57
2023-03-10T13:45:08.098Z,57
2023-03-10T13:46:08.660Z,57
2023-03-10T13:48:08.853Z,57
2023-03-10T13:49:08.030Z,57
2023-03-10T13:50:08.277Z,57
2023-03-10T13:51:08.217Z,57
2023-03-10T13:52:08.324Z,57
2023-03-10T13:53:08.988Z,57
2023-03-10T13:54:08.865Z,57
2023-03-10T13:55:08.179Z,57
2023-03-10T13:56:08.381Z,58
2023-03-10T13:57:08.408Z,57
2023-03-10T13:58:08.813Z,57
2023-03-10T13:59:08.000Z,57
2023-03-10T14:00:08.361Z,57
2023-03-10T14:01:08.785Z,58
2023-03-10T14:02:08.340Z,58
2023-03-10T14:03:07.990Z,58
2023-03-10T14:04:08.583Z,58
2023-03-10T14:05:08.489Z,58
2023-03-10T14:06:08.685Z,58
2023-03-10T14:07:08.460Z,57
2023-03-10T14:08:08.684Z,58
2023-03-10T14:09:10.238Z,57
2023-03-10T14:10:08.280Z,58
2023-03-10T14:11:08.475Z,58
2023-03-10T14:12:08.901Z,58
2023-03-10T14:15:08.787Z,59
2023-03-10T14:16:08.632Z,59
2023-03-10T14:17:08.342Z,59
2023-03-10T14:21:08.429Z,59
2023-03-10T14:22:08.859Z,59
2023-03-10T14:23:07.939Z,59
2023-03-10T14:24:08.167Z,59
2023-03-10T14:25:08.607Z,59
2023-03-10T14:26:08.660Z,59
2023-03-10T14:27:09.012Z,59
2023-03-10T14:28:08.048Z,59
2023-03-10T14:29:08.167Z,59
2023-03-10T14:31:08.293Z,59
2023-03-10T14:32:08.157Z,59
2023-03-10T14:33:08.586Z,60
2023-03-10T14:34:07.955Z,60
2023-03-10T14:35:08.659Z,60
2023-03-10T14:36:08.859Z,59
2023-03-10T14:37:07.998Z,59
2023-03-10T14:38:08.285Z,60
2023-03-10T14:39:10.696Z,60
2023-03-10T14:40:08.648Z,60
2023-03-10T14:41:07.945Z,60
2023-03-10T14:43:08.263Z,61
2023-03-10T14:44:08.026Z,61
2023-03-10T14:45:08.216Z,61
2023-03-10T14:46:09.585Z,61
2023-03-10T14:48:08.773Z,62
2023-03-10T14:49:08.411Z,62
2023-03-10T14:50:08.649Z,62
2023-03-10T14:51:07.979Z,62
2023-03-10T14:52:08.177Z,62
2023-03-10T14:53:08.488Z,62
2023-03-10T14:54:08.613Z,63
2023-03-10T14:55:08.160Z,63
2023-03-10T14:56:08.462Z,63
2023-03-10T14:57:08.926Z,63
2023-03-10T14:58:08.114Z,63
2023-03-10T14:59:08.526Z,63
2023-03-10T15:00:08.400Z,64
2023-03-10T15:01:08.234Z,64
2023-03-10T15:02:08.647Z,64
2023-03-10T15:03:10.680Z,64
2023-03-10T15:04:07.780Z,65
2023-03-10T15:05:08.561Z,65
2023-03-10T15:06:08.924Z,65
2023-03-10T15:07:08.110Z,65
2023-03-10T15:08:11.568Z,65
2023-03-10T15:09:08.598Z,65
2023-03-10T15:10:17.819Z,66
2023-03-10T15:11:08.234Z,66
2023-03-10T15:12:08.527Z,66
2023-03-10T15:13:08.828Z,66
2023-03-10T15:14:09.481Z,66
2023-03-10T15:15:08.094Z,66
2023-03-10T15:16:08.970Z,66
2023-03-10T15:18:08.299Z,66
2023-03-10T15:19:08.714Z,66
2023-03-10T15:20:09.050Z,66
2023-03-10T15:21:08.709Z,66
2023-03-10T15:22:08.807Z,66
2023-03-10T15:23:08.041Z,66
2023-03-10T15:24:08.376Z,66
2023-03-10T15:25:08.796Z,66
2023-03-10T15:26:08.417Z,66
2023-03-10T15:27:08.484Z,66
2023-03-10T15:28:08.825Z,66
2023-03-10T15:29:07.977Z,65
2023-03-10T15:30:08.432Z,66
2023-03-10T15:31:08.825Z,66
2023-03-10T15:32:08.396Z,66
2023-03-10T15:33:08.044Z,66
2023-03-10T15:34:08.212Z,66
2023-03-10T15:35:08.741Z,66
2023-03-10T15:36:09.242Z,65
2023-03-10T15:37:08.034Z,65
2023-03-10T15:38:08.297Z,65
2023-03-10T15:39:09.827Z,65
2023-03-10T15:40:09.009Z,65
2023-03-10T15:42:08.301Z,65
2023-03-10T15:43:08.780Z,65
2023-03-10T15:44:07.943Z,65
2023-03-10T15:45:10.449Z,65
2023-03-10T15:46:08.609Z,65
2023-03-10T15:47:08.911Z,65
2023-03-10T15:48:07.898Z,65
2023-03-10T15:49:08.131Z,65
2023-03-10T15:50:08.858Z,65
2023-03-10T15:51:10.158Z,65
2023-03-10T15:52:08.198Z,66
2023-03-10T15:53:08.414Z,66
2023-03-10T15:55:07.996Z,66
2023-03-10T15:56:08.236Z,66
2023-03-10T15:57:11.361Z,67
2023-03-10T15:58:08.648Z,67
2023-03-10T15:59:08.816Z,67
2023-03-10T16:00:08.440Z,67
2023-03-10T16:01:08.444Z,67
2023-03-10T16:02:09.080Z,67
2023-03-10T16:04:08.219Z,68
2023-03-10T16:05:08.798Z,68
2023-03-10T16:06:08.657Z,68
2023-03-10T16:07:08.873Z,68
2023-03-10T16:08:08.297Z,68
2023-03-10T16:09:10.760Z,69
2023-03-10T16:10:08.586Z,69
2023-03-10T16:11:08.146Z,69
2023-03-10T16:12:08.167Z,70
2023-03-10T16:13:08.305Z,70
2023-03-10T16:14:08.514Z,70
2023-03-10T16:15:08.112Z,71
2023-03-10T16:17:08.206Z,70
2023-03-10T16:18:07.892Z,70
2023-03-10T16:19:08.163Z,71
2023-03-10T16:20:08.624Z,71
2023-03-10T16:21:08.416Z,71
2023-03-10T16:23:08.088Z,71
2023-03-10T16:24:08.496Z,71
2023-03-10T16:25:08.570Z,71
2023-03-10T16:26:08.012Z,71
2023-03-10T16:27:08.434Z,71
2023-03-10T16:29:08.698Z,72
2023-03-10T16:30:08.319Z,72
2023-03-10T16:31:08.597Z,72
2023-03-10T16:32:08.721Z,72
2023-03-10T16:34:08.089Z,72
2023-03-10T16:35:08.402Z,72
2023-03-10T16:36:08.823Z,72
2023-03-10T16:37:08.717Z,72
2023-03-10T16:38:08.234Z,72
2023-03-10T16:39:08.384Z,72
2023-03-10T16:41:07.787Z,72
2023-03-10T16:42:08.417Z,72
2023-03-10T16:44:08.020Z,72
2023-03-10T16:45:08.646Z,72
2023-03-10T16:46:09.156Z,72
2023-03-10T16:47:08.058Z,72
2023-03-10T16:48:07.990Z,72
2023-03-10T16:49:08.593Z,72
2023-03-10T16:50:09.063Z,72
2023-03-10T16:51:07.804Z,72
2023-03-10T16:52:07.912Z,72
2023-03-10T16:53:08.282Z,72
2023-03-10T16:54:08.487Z,72
2023-03-10T16:55:08.801Z,72
2023-03-10T16:56:08.316Z,72
2023-03-10T16:57:08.740Z,72
2023-03-10T16:58:08.748Z,72
2023-03-10T17:00:08.442Z,73
2023-03-10T17:01:09.166Z,73
2023-03-10T17:02:08.135Z,73
2023-03-10T17:03:08.332Z,73
2023-03-10T17:04:08.640Z,73
2023-03-10T17:05:08.785Z,74
2023-03-10T17:06:08.108Z,74
2023-03-10T17:07:08.339Z,74
2023-03-10T17:08:08.418Z,74
2023-03-10T17:09:08.779Z,74
2023-03-10T17:10:08.093Z,74
2023-03-10T17:11:08.019Z,75
2023-03-10T17:12:08.552Z,75
2023-03-10T17:13:08.803Z,75
2023-03-10T17:14:07.945Z,75
2023-03-10T17:16:08.689Z,75
2023-03-10T17:17:11.567Z,75
2023-03-10T17:18:07.997Z,75
2023-03-10T17:20:08.852Z,75
2023-03-10T17:21:08.109Z,75
2023-03-10T17:22:08.323Z,76
2023-03-10T17:23:08.588Z,76
2023-03-10T17:24:08.595Z,76
2023-03-10T17:25:08.116Z,76
2023-03-10T17:26:08.148Z,76
2023-03-10T17:27:08.074Z,76
2023-03-10T17:28:08.833Z,76
2023-03-10T17:29:08.824Z,76
2023-03-10T17:30:08.370Z,76
2023-03-10T17:31:08.370Z,76
2023-03-10T17:32:08.820Z,76
2023-03-10T17:33:08.778Z,76
2023-03-10T17:34:08.297Z,76
2023-03-10T17:35:08.030Z,76
2023-03-10T17:36:08.216Z,75
2023-03-10T17:37:08.773Z,75
2023-03-10T17:38:08.671Z,75
2023-03-10T17:39:08.104Z,75
2023-03-10T17:40:08.184Z,75
2023-03-10T17:41:08.529Z,75
2023-03-10T17:42:08.006Z,75
2023-03-10T17:43:37.449Z,75
2023-03-10T17:44:08.290Z,75
2023-03-10T17:45:10.724Z,75
2023-03-10T17:46:08.443Z,75
2023-03-10T17:47:08.665Z,75
2023-03-10T17:49:08.066Z,75
2023-03-10T17:50:08.115Z,75
2023-03-10T17:51:08.157Z,75
2023-03-10T17:52:08.599Z,75
2023-03-10T17:53:08.159Z,75
2023-03-10T17:54:08.498Z,75
2023-03-10T17:55:08.287Z,75
2023-03-10T17:56:08.837Z,75
2023-03-10T17:57:07.909Z,75
2023-03-10T17:58:08.290Z,75
2023-03-10T17:59:08.659Z,75
2023-03-10T18:00:07.787Z,75
2023-03-10T18:01:08.055Z,75
2023-03-10T18:02:08.899Z,75
2023-03-10T18:03:09.427Z,75
2023-03-10T18:05:08.276Z,75
2023-03-10T18:07:08.469Z,75
2023-03-10T18:09:08.424Z,75
2023-03-10T18:10:08.461Z,75
2023-03-10T18:11:08.772Z,75
2023-03-10T18:12:08.673Z,76
2023-03-10T18:13:07.983Z,76
2023-03-10T18:14:10.127Z,75
2023-03-10T18:15:08.463Z,76
2023-03-10T18:17:08.443Z,76
2023-03-10T18:18:08.620Z,76
2023-03-10T18:19:11.959Z,76
2023-03-10T18:20:08.199Z,76
2023-03-10T18:21:08.774Z,75
2023-03-10T18:22:07.960Z,75
2023-03-10T18:23:07.912Z,75
2023-03-10T18:24:08.430Z,75
2023-03-10T18:25:08.625Z,75
2023-03-10T18:26:08.068Z,75
2023-03-10T18:27:08.393Z,75
2023-03-10T18:28:08.522Z,75
2023-03-10T18:29:08.035Z,76
2023-03-10T18:30:08.119Z,75
2023-03-10T18:31:08.957Z,75
2023-03-10T18:32:08.853Z,75
2023-03-10T18:33:08.014Z,76
2023-03-10T18:34:08.391Z,76
2023-03-10T18:35:08.695Z,76
2023-03-10T18:36:09.005Z,76
2023-03-10T18:37:08.117Z,76
2023-03-10T18:38:08.400Z,76
2023-03-10T18:39:08.660Z,76
2023-03-10T18:40:07.894Z,76
2023-03-10T18:41:08.397Z,76
2023-03-10T18:42:08.866Z,76
2023-03-10T18:43:07.971Z,76
2023-03-10T18:44:08.184Z,76
2023-03-10T18:45:08.750Z,76
2023-03-10T18:46:09.060Z,76
2023-03-10T18:48:07.952Z,76
2023-03-10T18:49:08.179Z,76
2023-03-10T18:50:08.600Z,76
2023-03-10T18:51:08.501Z,76
2023-03-10T18:52:08.558Z,76
2023-03-10T18:53:08.816Z,76
2023-03-10T18:55:08.132Z,76
2023-03-10T18:56:08.528Z,76
2023-03-10T18:57:08.668Z,76
2023-03-10T18:58:08.147Z,76
2023-03-10T18:59:08.111Z,76
2023-03-10T19:00:08.314Z,76
2023-03-10T19:01:08.565Z,76
2023-03-10T19:02:08.914Z,76
2023-03-10T19:03:08.200Z,76
2023-03-10T19:05:08.288Z,76
2023-03-10T19:06:08.683Z,76
2023-03-10T19:07:08.065Z,76
2023-03-10T19:08:08.461Z,76
2023-03-10T19:09:08.744Z,76
2023-03-10T19:10:08.779Z,76
2023-03-10T19:11:08.406Z,77
2023-03-10T19:13:08.728Z,77
2023-03-10T19:14:08.045Z,77
2023-03-10T19:15:08.144Z,77
2023-03-10T19:16:08.638Z,77
2023-03-10T19:17:08.894Z,77
2023-03-10T19:18:08.078Z,77
2023-03-10T19:19:08.488Z,77
2023-03-10T19:20:08.449Z,77
2023-03-10T19:21:08.083Z,77
2023-03-10T19:22:08.396Z,77
2023-03-10T19:23:08.628Z,78
2023-03-10T19:25:08.509Z,78
2023-03-10T19:26:08.640Z,78
2023-03-10T19:27:08.366Z,78
2023-03-10T19:28:08.440Z,78
2023-03-10T19:30:08.706Z,78
2023-03-10T19:31:08.584Z,78
2023-03-10T19:32:08.617Z,78
2023-03-10T19:33:08.580Z,78
2023-03-10T19:34:07.870Z,78
2023-03-10T19:35:08.172Z,78
2023-03-10T19:36:11.373Z,78
2023-03-10T19:37:08.850Z,78
2023-03-10T19:38:08.114Z,78
2023-03-10T19:39:08.414Z,78
2023-03-10T19:40:08.865Z,78
2023-03-10T19:41:08.300Z,78
2023-03-10T19:42:08.588Z,77
2023-03-10T19:43:08.824Z,77
2023-03-10T19:44:07.645Z,77
2023-03-10T19:45:08.410Z,77
2023-03-10T19:46:08.112Z,77